Time,TemperatureF,DewpointF,PressureIn,WindDirection,WindDirectionDegrees,WindSpeedMPH,WindSpeedGustMPH,Humidity,HourlyPrecipIn,Conditions,Clouds,dailyrainin,SoftwareType,DateUTC
2013-03-12 00:00:00,28.1,15.0,30.14,South,173,0.0,-999.0,59,-99.99,,,0.00,weatherlink.com 1.10,2013-03-12 06:00:00,
2013-03-12 00:15:00,28.4,14.0,30.14,South,173,0.0,-999.0,54,-99.99,,,0.00,weatherlink.com 1.10,2013-03-12 06:15:00,
2013-03-12 00:31:00,28.1,13.0,30.09,SSE,154,0.0,-999.0,54,-99.99,,,0.00,weatherlink.com 1.10,2013-03-12 06:31:00,
2013-03-12 00:46:00,29.1,12.0,30.08,South,171,3.0,-999.0,50,-99.99,,,0.00,weatherlink.com 1.10,2013-03-12 06:46:00,
2013-03-12 01:01:00,28.2,13.0,30.09,South,170,0.0,-999.0,53,-99.99,,,0.00,weatherlink.com 1.10,2013-03-12 07:01:00,
2013-03-12 01:17:00,27.6,12.0,30.07,South,171,0.0,-999.0,53,-99.99,,,0.00,weatherlink.com 1.10,2013-03-12 07:17:00,
2013-03-12 01:32:00,27.3,12.0,30.07,South,184,0.0,-999.0,53,-99.99,,,0.00,weatherlink.com 1.10,2013-03-12 07:32:00,
2013-03-12 01:47:00,26.3,12.0,30.09,South,178,3.0,-999.0,56,-99.99,,,0.00,weatherlink.com 1.10,2013-03-12 07:47:00,
2013-03-12 02:02:00,26.4,12.0,30.09,South,180,0.0,-999.0,54,-99.99,,,0.00,weatherlink.com 1.10,2013-03-12 08:02:00,
2013-03-12 02:19:00,25.8,12.0,30.11,South,173,0.0,-999.0,56,-99.99,,,0.00,weatherlink.com 1.10,2013-03-12 08:19:00,
2013-03-12 02:34:00,25.6,12.0,30.12,South,183,0.0,-999.0,56,-99.99,,,0.00,weatherlink.com 1.10,2013-03-12 08:34:00,
2013-03-12 02:49:00,25.7,12.0,30.12,South,176,4.0,-999.0,56,-99.99,,,0.00,weatherlink.com 1.10,2013-03-12 08:49:00,
2013-03-12 03:04:00,25.1,12.0,30.12,South,179,0.0,-999.0,57,-99.99,,,0.00,weatherlink.com 1.10,2013-03-12 09:04:00,
2013-03-12 03:19:00,25.0,12.0,30.12,SSE,166,1.0,-999.0,57,-99.99,,,0.00,weatherlink.com 1.10,2013-03-12 09:19:00,
2013-03-12 03:35:00,24.5,12.0,30.11,South,173,2.0,-999.0,58,-99.99,,,0.00,weatherlink.com 1.10,2013-03-12 09:35:00,
2013-03-12 03:50:00,24.1,11.0,30.12,South,175,4.0,-999.0,58,-99.99,,,0.00,weatherlink.com 1.10,2013-03-12 09:50:00,
2013-03-12 04:05:00,23.9,11.0,30.13,South,172,0.0,-999.0,58,-99.99,,,0.00,weatherlink.com 1.10,2013-03-12 10:05:00,
2013-03-12 04:19:00,23.6,11.0,30.15,South,169,0.0,-999.0,59,-99.99,,,0.00,weatherlink.com 1.10,2013-03-12 10:19:00,
2013-03-12 04:35:00,23.2,11.0,30.17,South,182,0.0,-999.0,59,-99.99,,,0.00,weatherlink.com 1.10,2013-03-12 10:35:00,
2013-03-12 04:50:00,23.0,11.0,30.18,SE,142,3.0,-999.0,60,-99.99,,,0.00,weatherlink.com 1.10,2013-03-12 10:50:00,
2013-03-12 05:05:00,22.7,11.0,30.18,SSE,162,0.0,-999.0,60,-99.99,,,0.00,weatherlink.com 1.10,2013-03-12 11:05:00,
2013-03-12 05:20:00,22.1,11.0,30.20,South,186,0.0,-999.0,63,-99.99,,,0.00,weatherlink.com 1.10,2013-03-12 11:20:00,
2013-03-12 05:35:00,22.1,11.0,30.20,SSE,163,0.0,-999.0,62,-99.99,,,0.00,weatherlink.com 1.10,2013-03-12 11:35:00,
2013-03-12 06:06:00,21.8,11.0,30.21,South,169,1.0,-999.0,62,-99.99,,,0.00,weatherlink.com 1.10,2013-03-12 12:06:00,
2013-03-12 06:21:00,22.2,11.0,30.25,South,174,0.0,-999.0,61,-99.99,,,0.00,weatherlink.com 1.10,2013-03-12 12:21:00,
2013-03-12 06:36:00,21.4,10.0,30.26,South,172,0.0,-999.0,62,-99.99,,,0.00,weatherlink.com 1.10,2013-03-12 12:36:00,
2013-03-12 06:52:00,21.1,11.0,30.26,South,169,0.0,-999.0,64,-99.99,,,0.00,weatherlink.com 1.10,2013-03-12 12:52:00,
2013-03-12 07:07:00,20.8,10.0,30.27,SSE,165,0.0,-999.0,64,-99.99,,,0.00,weatherlink.com 1.10,2013-03-12 13:07:00,
2013-03-12 07:22:00,20.5,10.0,30.33,South,175,0.0,-999.0,64,-99.99,,,0.00,weatherlink.com 1.10,2013-03-12 13:22:00,
2013-03-12 07:37:00,20.5,10.0,30.32,South,170,2.0,-999.0,65,-99.99,,,0.00,weatherlink.com 1.10,2013-03-12 13:37:00,
2013-03-12 07:54:00,21.0,11.0,30.32,SSW,192,0.0,-999.0,64,-99.99,,,0.00,weatherlink.com 1.10,2013-03-12 13:54:00,
2013-03-12 08:09:00,21.6,10.0,30.32,SSE,161,0.0,-999.0,62,-99.99,,,0.00,weatherlink.com 1.10,2013-03-12 14:09:00,
2013-03-12 08:24:00,21.9,10.0,30.35,WSW,250,0.0,-999.0,61,-99.99,,,0.00,weatherlink.com 1.10,2013-03-12 14:24:00,
2013-03-12 08:39:00,22.7,11.0,30.35,SSE,160,0.0,-999.0,60,-99.99,,,0.00,weatherlink.com 1.10,2013-03-12 14:39:00,
2013-03-12 08:54:00,22.7,11.0,30.35,SSW,195,9.0,-999.0,61,-99.99,,,0.00,weatherlink.com 1.10,2013-03-12 14:54:00,
2013-03-12 09:09:00,23.5,11.0,30.36,SSE,155,3.0,-999.0,60,-99.99,,,0.00,weatherlink.com 1.10,2013-03-12 15:09:00,
2013-03-12 09:25:00,25.1,11.0,30.36,SSE,158,0.0,-999.0,56,-99.99,,,0.00,weatherlink.com 1.10,2013-03-12 15:25:00,
2013-03-12 09:39:00,26.6,12.0,30.34,South,188,1.0,-999.0,55,-99.99,,,0.00,weatherlink.com 1.10,2013-03-12 15:39:00,
2013-03-12 09:55:00,28.1,12.0,30.34,WSW,238,0.0,-999.0,52,-99.99,,,0.00,weatherlink.com 1.10,2013-03-12 15:55:00,
2013-03-12 10:10:00,29.8,13.0,30.33,NE,46,3.0,-999.0,49,-99.99,,,0.00,weatherlink.com 1.10,2013-03-12 16:10:00,
2013-03-12 10:40:00,34.1,14.0,30.30,NE,49,0.0,-999.0,43,-99.99,,,0.00,weatherlink.com 1.10,2013-03-12 16:40:00,
2013-03-12 10:56:00,36.8,14.0,30.29,NE,49,0.0,-999.0,40,-99.99,,,0.00,weatherlink.com 1.10,2013-03-12 16:56:00,
2013-03-12 11:11:00,38.8,15.0,30.25,NE,49,2.0,-999.0,38,-99.99,,,0.00,weatherlink.com 1.10,2013-03-12 17:11:00,
2013-03-12 11:41:00,41.6,13.0,30.22,NE,40,0.0,-999.0,31,-99.99,,,0.00,weatherlink.com 1.10,2013-03-12 17:41:00,
2013-03-12 11:56:00,44.1,15.0,30.21,South,175,0.0,-999.0,31,-99.99,,,0.00,weatherlink.com 1.10,2013-03-12 17:56:00,
2013-03-12 12:12:00,43.6,12.0,30.19,ESE,106,2.0,-999.0,28,-99.99,,,0.00,weatherlink.com 1.10,2013-03-12 18:12:00,
2013-03-12 12:27:00,43.8,13.0,30.19,WNW,301,1.0,-999.0,29,-99.99,,,0.00,weatherlink.com 1.10,2013-03-12 18:27:00,
2013-03-12 12:42:00,45.7,13.0,30.17,NE,45,0.0,-999.0,27,-99.99,,,0.00,weatherlink.com 1.10,2013-03-12 18:42:00,
2013-03-12 12:59:00,47.3,13.0,30.15,North,5,0.0,-999.0,25,-99.99,,,0.00,weatherlink.com 1.10,2013-03-12 18:59:00,
2013-03-12 13:14:00,48.3,15.0,30.13,NNW,331,0.0,-999.0,26,-99.99,,,0.00,weatherlink.com 1.10,2013-03-12 19:14:00,
2013-03-12 13:29:00,48.9,14.0,30.12,SSE,155,1.0,-999.0,25,-99.99,,,0.00,weatherlink.com 1.10,2013-03-12 19:29:00,